createdAt,value
2022-08-23T00:02:27.964Z,100207.72
2022-08-23T00:05:07.604Z,100205.00
2022-08-23T00:07:40.028Z,100207.06
2022-08-23T00:10:11.488Z,100205.06
2022-08-23T00:12:40.986Z,100204.44
2022-08-23T00:15:11.658Z,100208.53
2022-08-23T00:17:42.260Z,100211.16
2022-08-23T00:20:17.389Z,100213.78
2022-08-23T00:22:47.002Z,100214.69
2022-08-23T00:25:17.148Z,100212.28
2022-08-23T00:27:46.806Z,100211.47
2022-08-23T00:30:16.618Z,100213.56
2022-08-23T00:32:46.253Z,100210.91
2022-08-23T00:35:23.719Z,100215.81
2022-08-23T00:38:33.086Z,100219.91
2022-08-23T00:40:47.218Z,100206.44
2022-08-23T00:43:29.938Z,100212.34
2022-08-23T00:46:15.011Z,100219.41
2022-08-23T00:48:44.506Z,100222.16
2022-08-23T00:51:19.012Z,100220.84
2022-08-23T00:53:51.568Z,100222.03
2022-08-23T00:56:22.638Z,100220.47
2022-08-23T00:58:52.226Z,100214.56
2022-08-23T01:01:21.813Z,100222.38
2022-08-23T01:04:03.957Z,100226.97
2022-08-23T01:06:39.899Z,100222.44
2022-08-23T01:09:11.149Z,100226.03
2022-08-23T01:11:42.768Z,100220.38
2022-08-23T01:14:14.337Z,100226.38
2022-08-23T01:16:45.662Z,100230.75
2022-08-23T01:19:19.734Z,100222.13
2022-08-23T01:21:54.371Z,100221.88
2022-08-23T01:25:05.999Z,100217.94
2022-08-23T01:27:15.971Z,100216.38
2022-08-23T01:29:45.658Z,100224.88
2022-08-23T01:32:15.209Z,100229.97
2022-08-23T01:34:51.506Z,100229.69
2022-08-23T01:37:21.183Z,100229.47
2022-08-23T01:39:53.371Z,100240.31
2022-08-23T01:42:22.964Z,100228.47
2022-08-23T01:44:52.429Z,100233.94
2022-08-23T01:47:21.878Z,100230.44
2022-08-23T01:49:51.633Z,100225.09
2022-08-23T01:52:21.376Z,100230.09
2022-08-23T01:54:53.431Z,100230.31
2022-08-23T01:57:22.968Z,100236.81
2022-08-23T01:59:52.436Z,100232.78
2022-08-23T02:02:21.896Z,100231.69
2022-08-23T02:04:51.369Z,100233.84
2022-08-23T02:07:20.883Z,100236.06
2022-08-23T02:09:52.943Z,100225.56
2022-08-23T02:12:22.390Z,100226.94
2022-08-23T02:14:52.101Z,100233.72
2022-08-23T02:17:22.471Z,100231.06
2022-08-23T02:19:51.960Z,100239.19
2022-08-23T02:22:21.447Z,100242.50
2022-08-23T02:24:53.510Z,100235.78
2022-08-23T02:27:23.098Z,100235.25
2022-08-23T02:29:52.906Z,100242.03
2022-08-23T02:32:22.382Z,100240.97
2022-08-23T02:35:04.585Z,100237.78
2022-08-23T02:37:35.517Z,100243.44
2022-08-23T02:40:08.557Z,100241.81
2022-08-23T02:42:38.131Z,100238.59
2022-08-23T02:45:08.651Z,100238.63
2022-08-23T02:47:38.235Z,100246.50
2022-08-23T02:50:07.967Z,100253.75
2022-08-23T02:52:37.511Z,100252.97
2022-08-23T02:55:10.960Z,100255.94
2022-08-23T02:57:40.760Z,100249.75
2022-08-23T03:00:12.045Z,100248.97
2022-08-23T03:02:41.682Z,100256.28
2022-08-23T03:05:12.413Z,100257.41
2022-08-23T03:07:41.989Z,100260.38
2022-08-23T03:10:16.450Z,100255.84
2022-08-23T03:12:45.982Z,100263.97
2022-08-23T03:15:15.496Z,100257.50
2022-08-23T03:17:44.986Z,100257.75
2022-08-23T03:20:14.543Z,100252.69
2022-08-23T03:22:48.231Z,100259.13
2022-08-23T03:25:26.729Z,100254.03
2022-08-23T03:27:56.249Z,100250.00
2022-08-23T03:30:25.742Z,100263.50
2022-08-23T03:32:55.233Z,100258.88
2022-08-23T03:35:24.697Z,100258.38
2022-08-23T03:37:55.329Z,100257.31
2022-08-23T03:40:27.506Z,100262.69
2022-08-23T03:42:56.945Z,100259.75
2022-08-23T03:45:26.401Z,100258.41
2022-08-23T03:47:55.883Z,100261.13
2022-08-23T03:50:25.396Z,100261.97
2022-08-23T03:52:54.832Z,100265.78
2022-08-23T03:55:26.872Z,100267.91
2022-08-23T03:57:56.392Z,100272.78
2022-08-23T04:00:25.969Z,100264.44
2022-08-23T04:02:55.427Z,100269.84
2022-08-23T04:05:24.918Z,100272.25
2022-08-23T04:07:55.158Z,100273.06
2022-08-23T04:10:27.253Z,100278.19
2022-08-23T04:12:56.704Z,100282.78
2022-08-23T04:15:26.222Z,100287.38
2022-08-23T04:17:55.682Z,100294.66
2022-08-23T04:20:25.250Z,100296.81
2022-08-23T04:22:54.784Z,100296.81
2022-08-23T04:25:33.780Z,100298.69
2022-08-23T04:28:05.072Z,100310.56
2022-08-23T04:30:34.547Z,100313.25
2022-08-23T04:33:09.784Z,100313.25
2022-08-23T04:35:41.418Z,100307.03
2022-08-23T04:38:24.125Z,100311.88
2022-08-23T04:41:11.252Z,100317.00
2022-08-23T04:43:41.246Z,100317.53
2022-08-23T04:46:11.097Z,100314.59
2022-08-23T04:48:40.658Z,100319.97
2022-08-23T04:51:10.150Z,100319.97
2022-08-23T04:53:39.637Z,100334.25
2022-08-23T04:56:11.924Z,100331.00
2022-08-23T04:58:41.417Z,100339.91
2022-08-23T05:01:11.850Z,100337.19
2022-08-23T05:03:41.527Z,100336.13
2022-08-23T05:06:11.281Z,100338.00
2022-08-23T05:08:40.828Z,100342.34
2022-08-23T05:11:13.636Z,100338.56
2022-08-23T05:13:43.073Z,100345.28
2022-08-23T05:16:12.539Z,100344.72
2022-08-23T05:18:41.997Z,100350.91
2022-08-23T05:21:11.489Z,100352.78
2022-08-23T05:23:40.944Z,100354.91
2022-08-23T05:26:12.980Z,100357.03
2022-08-23T05:28:43.851Z,100361.06
2022-08-23T05:31:14.762Z,100365.63
2022-08-23T05:33:44.181Z,100363.19
2022-08-23T05:36:14.672Z,100374.22
2022-08-23T05:38:44.196Z,100363.69
2022-08-23T05:41:16.784Z,100365.53
2022-08-23T05:43:47.167Z,100361.69
2022-08-23T05:46:18.309Z,100367.03
2022-08-23T05:48:51.709Z,100369.44
2022-08-23T05:51:22.486Z,100371.81
2022-08-23T05:53:52.710Z,100377.41
2022-08-23T05:56:26.398Z,100378.16
2022-08-23T05:58:59.673Z,100385.94
2022-08-23T06:01:29.888Z,100398.88
2022-08-23T06:04:01.402Z,100388.78
2022-08-23T06:06:35.040Z,100390.00
2022-08-23T06:09:07.508Z,100403.19
2022-08-23T06:11:39.700Z,100400.91
2022-08-23T06:14:10.030Z,100399.63
2022-08-23T06:16:41.233Z,100397.16
2022-08-23T06:19:11.172Z,100408.78
2022-08-23T06:21:41.022Z,100408.75
2022-08-23T06:24:10.900Z,100406.66
2022-08-23T06:26:45.460Z,100407.56
2022-08-23T06:29:19.310Z,100395.31
2022-08-23T06:31:50.112Z,100397.50
2022-08-23T06:34:21.946Z,100401.03
2022-08-23T06:36:52.664Z,100400.22
2022-08-23T06:39:22.895Z,100398.34
2022-08-23T06:41:55.370Z,100412.72
2022-08-23T06:44:25.049Z,100410.72
2022-08-23T06:46:56.436Z,100410.72
2022-08-23T06:49:26.144Z,100412.63
2022-08-23T06:51:56.506Z,100408.84
2022-08-23T06:54:29.181Z,100401.34
2022-08-23T06:57:01.580Z,100423.47
2022-08-23T06:59:31.853Z,100415.06
2022-08-23T07:02:04.145Z,100418.00
2022-08-23T07:04:34.729Z,100418.19
2022-08-23T07:07:07.145Z,100424.94
2022-08-23T07:09:40.498Z,100426.34
2022-08-23T07:12:12.809Z,100426.09
2022-08-23T07:14:42.546Z,100428.09
2022-08-23T07:17:12.588Z,100435.06
2022-08-23T07:19:44.081Z,100426.34
2022-08-23T07:22:15.590Z,100430.34
2022-08-23T07:24:45.917Z,100433.16
2022-08-23T07:27:17.954Z,100424.91
2022-08-23T07:29:47.476Z,100434.88
2022-08-23T07:32:18.772Z,100427.16
2022-08-23T07:34:48.365Z,100434.94
2022-08-23T07:37:18.817Z,100429.00
2022-08-23T07:39:48.450Z,100433.31
2022-08-23T07:42:23.777Z,100436.06
2022-08-23T07:44:54.295Z,100439.41
2022-08-23T07:47:24.102Z,100436.25
2022-08-23T07:49:53.619Z,100433.28
2022-08-23T07:52:23.568Z,100436.47
2022-08-23T07:54:53.141Z,100439.94
2022-08-23T07:57:25.919Z,100451.69
2022-08-23T07:59:55.466Z,100446.22
2022-08-23T08:02:25.402Z,100441.16
2022-08-23T08:04:54.997Z,100442.00
2022-08-23T08:07:24.545Z,100439.56
2022-08-23T08:09:54.097Z,100451.88
2022-08-23T08:12:27.076Z,100453.91
2022-08-23T08:14:56.728Z,100453.94
2022-08-23T08:17:27.629Z,100446.09
2022-08-23T08:19:57.426Z,100444.41
2022-08-23T08:22:27.332Z,100443.28
2022-08-23T08:24:56.906Z,100448.31
2022-08-23T08:27:29.680Z,100456.28
2022-08-23T08:30:02.850Z,100452.75
2022-08-23T08:32:32.422Z,100454.94
2022-08-23T08:35:02.481Z,100457.38
2022-08-23T08:37:32.252Z,100456.31
2022-08-23T08:40:01.951Z,100460.09
2022-08-23T08:42:49.600Z,100452.94
2022-08-23T08:45:19.879Z,100457.03
2022-08-23T08:47:52.042Z,100454.13
2022-08-23T08:50:24.174Z,100461.13
2022-08-23T08:52:55.237Z,100458.63
2022-08-23T08:55:28.522Z,100466.56
2022-08-23T08:58:00.871Z,100459.16
2022-08-23T09:00:32.470Z,100462.09
2022-08-23T09:03:02.905Z,100455.13
2022-08-23T09:05:36.140Z,100465.53
2022-08-23T09:08:12.576Z,100464.88
2022-08-23T09:10:53.215Z,100455.97
2022-08-23T09:13:53.723Z,100457.00
2022-08-23T09:16:30.215Z,100455.06
2022-08-23T09:18:59.997Z,100454.38
2022-08-23T09:21:29.630Z,100451.63
2022-08-23T09:24:01.001Z,100462.38
2022-08-23T09:26:32.684Z,100460.56
2022-08-23T09:29:07.837Z,100450.16
2022-08-23T09:31:42.773Z,100449.53
2022-08-23T09:34:23.267Z,100448.91
2022-08-23T09:36:53.153Z,100451.81
2022-08-23T09:39:32.005Z,100448.88
2022-08-23T09:42:02.144Z,100447.13
2022-08-23T09:44:42.237Z,100444.94
2022-08-23T09:47:15.087Z,100442.72
2022-08-23T09:49:45.001Z,100432.19
2022-08-23T09:52:22.109Z,100436.78
2022-08-23T09:54:57.905Z,100445.50
2022-08-23T09:57:28.870Z,100438.47
2022-08-23T10:00:03.387Z,100445.19
2022-08-23T10:02:35.361Z,100438.84
2022-08-23T10:05:07.401Z,100440.97
2022-08-23T10:07:43.028Z,100440.69
2022-08-23T10:10:28.048Z,100429.38
2022-08-23T10:12:59.129Z,100431.03
2022-08-23T10:15:43.561Z,100431.19
2022-08-23T10:18:16.493Z,100438.28
2022-08-23T10:20:50.112Z,100435.72
2022-08-23T10:23:23.738Z,100434.38
2022-08-23T10:25:56.212Z,100431.69
2022-08-23T10:28:45.590Z,100427.84
2022-08-23T10:31:22.197Z,100428.56
2022-08-23T10:33:54.983Z,100427.41
2022-08-23T10:36:26.478Z,100430.63
2022-08-23T10:38:59.708Z,100427.34
2022-08-23T10:41:44.628Z,100431.16
2022-08-23T10:44:24.769Z,100425.34
2022-08-23T10:47:03.880Z,100420.38
2022-08-23T10:49:33.439Z,100408.78
2022-08-23T10:52:06.213Z,100414.00
2022-08-23T10:54:46.509Z,100408.00
2022-08-23T10:57:17.295Z,100404.59
2022-08-23T10:59:47.097Z,100403.03
2022-08-23T11:02:22.228Z,100398.69
2022-08-23T11:04:54.830Z,100393.69
2022-08-23T11:07:28.313Z,100401.56
2022-08-23T11:10:16.359Z,100400.13
2022-08-23T11:12:55.403Z,100384.41
2022-08-23T11:15:30.086Z,100387.97
2022-08-23T11:18:05.052Z,100387.47
2022-08-23T11:21:03.158Z,100384.13
2022-08-23T11:23:58.219Z,100391.63
2022-08-23T11:27:06.351Z,100384.31
2022-08-23T11:29:37.724Z,100377.81
2022-08-23T11:32:20.570Z,100369.00
2022-08-23T11:34:56.343Z,100379.09
2022-08-23T11:37:27.214Z,100378.66
2022-08-23T11:40:05.870Z,100369.28
2022-08-23T11:42:53.776Z,100376.06
2022-08-23T11:45:25.926Z,100377.06
2022-08-23T11:48:06.133Z,100372.81
2022-08-23T11:50:42.770Z,100363.88
2022-08-23T11:53:24.319Z,100366.50
2022-08-23T11:56:03.961Z,100365.69
2022-08-23T11:58:35.751Z,100361.97
2022-08-23T12:01:09.442Z,100360.69
2022-08-23T12:03:58.627Z,100356.59
2022-08-23T12:06:51.001Z,100356.44
2022-08-23T12:09:51.110Z,100355.50
2022-08-23T12:12:34.790Z,100355.66
2022-08-23T12:15:09.200Z,100346.84
2022-08-23T12:17:57.153Z,100357.44
2022-08-23T12:20:33.388Z,100347.78
2022-08-23T12:23:18.636Z,100347.44
2022-08-23T12:25:48.466Z,100341.38
2022-08-23T12:28:39.434Z,100340.50
2022-08-23T12:31:15.834Z,100344.16
2022-08-23T12:33:54.637Z,100347.47
2022-08-23T12:36:26.626Z,100353.25
2022-08-23T12:39:04.404Z,100350.97
2022-08-23T12:41:35.088Z,100351.53
2022-08-23T12:44:06.124Z,100347.44
2022-08-23T12:46:39.529Z,100342.28
2022-08-23T12:49:09.335Z,100345.13
2022-08-23T12:51:44.429Z,100339.97
2022-08-23T12:54:22.349Z,100346.69
2022-08-23T12:56:52.862Z,100347.38
2022-08-23T12:59:43.518Z,100335.97
2022-08-23T13:02:13.469Z,100331.09
2022-08-23T13:04:43.287Z,100331.72
2022-08-23T13:07:15.163Z,100322.97
2022-08-23T13:09:53.529Z,100324.50
2022-08-23T13:12:24.610Z,100325.13
2022-08-23T13:14:54.903Z,100321.13
2022-08-23T13:17:25.566Z,100306.44
2022-08-23T13:19:56.538Z,100321.50
2022-08-23T13:22:27.207Z,100316.03
2022-08-23T13:25:28.180Z,100312.41
2022-08-23T13:27:59.140Z,100316.56
2022-08-23T13:30:29.647Z,100317.22
2022-08-23T13:33:13.934Z,100311.81
2022-08-23T13:35:44.757Z,100310.97
2022-08-23T13:38:23.885Z,100313.69
2022-08-23T13:41:00.481Z,100316.69
2022-08-23T13:43:32.874Z,100311.13
2022-08-23T13:46:03.493Z,100310.66
2022-08-23T13:48:34.725Z,100307.31
2022-08-23T13:51:20.584Z,100301.31
2022-08-23T13:53:50.121Z,100315.16
2022-08-23T13:56:22.165Z,100302.50
2022-08-23T13:58:56.404Z,100297.88
2022-08-23T14:01:25.986Z,100306.41
2022-08-23T14:03:55.657Z,100301.53
2022-08-23T14:06:25.629Z,100301.19
2022-08-23T14:08:55.297Z,100296.53
2022-08-23T14:11:27.357Z,100301.41
2022-08-23T14:13:56.821Z,100301.25
2022-08-23T14:16:39.830Z,100294.97
2022-08-23T14:19:54.748Z,100293.25
2022-08-23T14:22:00.054Z,100296.34
2022-08-23T14:24:29.931Z,100291.31
2022-08-23T14:27:02.756Z,100290.94
2022-08-23T14:29:32.299Z,100289.88
2022-08-23T14:32:02.285Z,100287.22
2022-08-23T14:34:32.237Z,100284.63
2022-08-23T14:39:51.230Z,100281.94
2022-08-23T14:42:24.349Z,100282.44
2022-08-23T14:44:53.892Z,100293.41
2022-08-23T14:47:23.329Z,100289.28
2022-08-23T14:49:54.073Z,100276.03
2022-08-23T14:52:23.758Z,100286.44
2022-08-23T14:54:53.249Z,100284.16
2022-08-23T14:57:25.354Z,100279.13
2022-08-23T14:59:55.166Z,100278.97
2022-08-23T15:02:25.771Z,100278.53
2022-08-23T15:04:55.795Z,100277.31
2022-08-23T15:07:25.276Z,100288.53
2022-08-23T15:09:55.275Z,100282.75
2022-08-23T15:15:22.039Z,100282.66
2022-08-23T15:17:54.609Z,100277.69
2022-08-23T15:20:24.593Z,100272.69
2022-08-23T15:22:55.362Z,100274.59
2022-08-23T15:25:25.820Z,100270.84
2022-08-23T15:27:57.894Z,100273.53
2022-08-23T15:30:27.465Z,100276.38
2022-08-23T15:32:59.691Z,100273.19
2022-08-23T15:35:29.824Z,100273.84
2022-08-23T15:37:59.532Z,100271.91
2022-08-23T15:40:29.023Z,100273.81
2022-08-23T15:43:01.223Z,100267.78
2022-08-23T15:45:31.306Z,100272.47
2022-08-23T15:48:01.307Z,100271.78
2022-08-23T15:50:32.173Z,100268.41
2022-08-23T15:53:01.869Z,100258.13
2022-08-23T15:55:32.467Z,100273.19
2022-08-23T15:58:04.501Z,100266.13
2022-08-23T16:00:33.964Z,100256.66
2022-08-23T16:03:18.258Z,100268.28
2022-08-23T16:05:50.595Z,100260.97
2022-08-23T16:08:21.817Z,100260.22
2022-08-23T16:10:51.405Z,100264.81
2022-08-23T16:13:23.613Z,100268.34
2022-08-23T16:15:53.071Z,100260.28
2022-08-23T16:18:22.555Z,100265.88
2022-08-23T16:20:54.404Z,100262.28
2022-08-23T16:23:26.487Z,100252.41
2022-08-23T16:26:00.860Z,100268.31
2022-08-23T16:28:33.294Z,100261.22
2022-08-23T16:31:02.805Z,100270.34
2022-08-23T16:33:32.317Z,100263.84
2022-08-23T16:36:01.758Z,100265.88
2022-08-23T16:38:31.312Z,100259.16
2022-08-23T16:41:00.788Z,100266.59
2022-08-23T16:43:33.056Z,100274.31
2022-08-23T16:46:02.572Z,100272.16
2022-08-23T16:48:32.090Z,100274.47
2022-08-23T16:51:01.535Z,100269.50
2022-08-23T16:53:31.002Z,100264.16
2022-08-23T16:56:00.625Z,100262.69
2022-08-23T16:58:32.713Z,100262.84
2022-08-23T17:01:02.158Z,100255.88
2022-08-23T17:03:32.375Z,100261.75
2022-08-23T17:06:02.099Z,100266.72
2022-08-23T17:08:32.057Z,100266.91
2022-08-23T17:11:03.301Z,100263.72
2022-08-23T17:13:35.573Z,100263.72
2022-08-23T17:16:06.376Z,100268.69
2022-08-23T17:18:36.039Z,100275.66
2022-08-23T17:21:05.525Z,100277.84
2022-08-23T17:23:39.245Z,100270.03
2022-08-23T17:26:10.360Z,100280.16
2022-08-23T17:28:42.401Z,100283.81
2022-08-23T17:31:11.848Z,100287.34
2022-08-23T17:33:41.799Z,100282.44
2022-08-23T17:36:21.313Z,100281.06
2022-08-23T17:38:50.763Z,100294.06
2022-08-23T17:41:20.232Z,100297.19
2022-08-23T17:43:52.324Z,100292.28
2022-08-23T17:46:23.181Z,100295.56
2022-08-23T17:48:52.640Z,100290.25
2022-08-23T17:51:22.134Z,100298.25
2022-08-23T17:53:51.581Z,100299.00
2022-08-23T17:56:21.072Z,100307.97
2022-08-23T17:58:53.103Z,100302.28
2022-08-23T18:01:22.670Z,100307.22
2022-08-23T18:03:52.482Z,100311.56
2022-08-23T18:06:22.108Z,100309.75
2022-08-23T18:08:51.556Z,100318.97
2022-08-23T18:11:21.023Z,100308.59
2022-08-23T18:13:53.435Z,100319.84
2022-08-23T18:16:23.000Z,100321.81
2022-08-23T18:18:52.478Z,100321.38
2022-08-23T18:21:21.911Z,100313.66
2022-08-23T18:23:51.384Z,100322.41
2022-08-23T18:26:33.103Z,100335.31
2022-08-23T18:29:05.598Z,100329.41
2022-08-23T18:31:35.128Z,100335.06
2022-08-23T18:34:04.756Z,100337.69
2022-08-23T18:36:34.225Z,100345.59
2022-08-23T18:39:03.691Z,100344.84
2022-08-23T18:41:33.134Z,100353.09
2022-08-23T18:44:05.902Z,100352.28
2022-08-23T18:46:35.404Z,100353.44
2022-08-23T18:49:04.963Z,100359.88
2022-08-23T18:51:34.459Z,100357.66
2022-08-23T18:54:04.366Z,100359.47
2022-08-23T18:56:35.336Z,100359.03
2022-08-23T18:59:16.399Z,100364.03
2022-08-23T19:01:48.570Z,100360.84
2022-08-23T19:04:34.379Z,100363.88
2022-08-23T19:07:15.798Z,100363.13
2022-08-23T19:09:45.266Z,100368.56
2022-08-23T19:12:19.486Z,100371.78
2022-08-23T19:15:08.938Z,100376.72
2022-08-23T19:17:42.705Z,100391.16
2022-08-23T19:20:13.836Z,100394.19
2022-08-23T19:22:50.399Z,100391.97
2022-08-23T19:25:23.204Z,100389.03
2022-08-23T19:27:53.159Z,100389.03
2022-08-23T19:30:28.376Z,100387.94
2022-08-23T19:32:58.731Z,100397.41
2022-08-23T19:35:36.531Z,100396.59
2022-08-23T19:38:08.987Z,100402.88
2022-08-23T19:40:41.850Z,100400.44
2022-08-23T19:43:12.149Z,100400.75
2022-08-23T19:45:44.817Z,100414.38
2022-08-23T19:48:16.309Z,100413.56
2022-08-23T19:50:46.009Z,100409.75
2022-08-23T19:53:15.441Z,100412.28
2022-08-23T19:55:46.008Z,100412.13
2022-08-23T19:58:18.154Z,100415.00
2022-08-23T20:00:50.281Z,100416.59
2022-08-23T20:03:22.801Z,100420.28
2022-08-23T20:05:55.287Z,100420.13
2022-08-23T20:08:25.340Z,100421.72
2022-08-23T20:10:59.039Z,100416.25
2022-08-23T20:13:29.278Z,100420.69
2022-08-23T20:16:01.614Z,100427.88
2022-08-23T20:18:32.117Z,100433.59
2022-08-23T20:21:06.339Z,100435.69
2022-08-23T20:23:48.459Z,100431.16
2022-08-23T20:26:18.507Z,100430.50
2022-08-23T20:28:50.007Z,100438.03
2022-08-23T20:31:33.266Z,100437.69
2022-08-23T20:34:02.798Z,100434.44
2022-08-23T20:36:33.378Z,100434.06
2022-08-23T20:39:03.339Z,100435.13
2022-08-23T20:41:34.410Z,100445.84
2022-08-23T20:44:03.921Z,100433.66
2022-08-23T20:46:36.180Z,100435.22
2022-08-23T20:49:05.786Z,100433.75
2022-08-23T20:51:36.681Z,100437.38
2022-08-23T20:54:06.765Z,100441.03
2022-08-23T20:56:37.074Z,100448.19
2022-08-23T20:59:06.684Z,100435.22
2022-08-23T21:01:38.791Z,100440.78
2022-08-23T21:04:08.599Z,100447.94
2022-08-23T21:06:45.063Z,100442.91
2022-08-23T21:09:17.015Z,100457.44
2022-08-23T21:11:46.599Z,100448.28
2022-08-23T21:14:17.225Z,100444.25
2022-08-23T21:16:50.749Z,100442.94
2022-08-23T21:19:20.200Z,100448.50
2022-08-23T21:21:49.656Z,100445.41
2022-08-23T21:24:19.113Z,100445.53
2022-08-23T21:26:48.785Z,100453.69
2022-08-23T21:29:18.228Z,100454.47
2022-08-23T21:31:50.391Z,100444.03
2022-08-23T21:34:19.859Z,100451.78
2022-08-23T21:36:51.288Z,100447.75
2022-08-23T21:39:20.991Z,100453.31
2022-08-23T21:41:51.029Z,100444.75
2022-08-23T21:44:22.208Z,100452.41
2022-08-23T21:46:54.242Z,100447.75
2022-08-23T21:49:23.685Z,100448.19
2022-08-23T21:51:53.570Z,100444.94
2022-08-23T21:54:24.548Z,100444.56
2022-08-23T21:56:53.996Z,100455.53
2022-08-23T21:59:23.433Z,100452.41
2022-08-23T22:01:55.553Z,100449.00
2022-08-23T22:04:25.029Z,100451.50
2022-08-23T22:06:55.789Z,100446.97
2022-08-23T22:09:27.927Z,100448.91
2022-08-23T22:12:01.116Z,100446.28
2022-08-23T22:14:31.993Z,100449.91
2022-08-23T22:17:04.035Z,100446.66
2022-08-23T22:19:33.492Z,100441.53
2022-08-23T22:22:03.006Z,100451.66
2022-08-23T22:24:32.446Z,100447.13
2022-08-23T22:27:01.893Z,100444.19
2022-08-23T22:29:31.591Z,100446.22
2022-08-23T22:32:02.782Z,100442.00
2022-08-23T22:34:34.811Z,100444.19
2022-08-23T22:37:04.264Z,100446.09
2022-08-23T22:39:33.704Z,100442.88
2022-08-23T22:42:03.165Z,100441.84
2022-08-23T22:44:33.824Z,100443.56
2022-08-23T22:47:03.525Z,100437.72
2022-08-23T22:49:35.561Z,100445.13
2022-08-23T22:52:05.134Z,100453.22
2022-08-23T22:54:34.619Z,100450.56
2022-08-23T22:57:04.085Z,100459.44
2022-08-23T22:59:33.634Z,100456.06
2022-08-23T23:02:04.224Z,100457.38
2022-08-23T23:04:42.116Z,100467.69
2022-08-23T23:07:11.565Z,100463.31
2022-08-23T23:09:41.280Z,100458.66
2022-08-23T23:12:10.942Z,100464.16
2022-08-23T23:14:40.389Z,100469.56
2022-08-23T23:17:09.892Z,100476.66
2022-08-23T23:19:54.416Z,100486.47
2022-08-23T23:22:23.877Z,100492.41
2022-08-23T23:24:53.304Z,100490.69
2022-08-23T23:27:23.313Z,100486.88
2022-08-23T23:29:52.771Z,100489.28
2022-08-23T23:32:22.454Z,100483.88
2022-08-23T23:34:54.579Z,100488.44
2022-08-23T23:37:26.796Z,100489.97
2022-08-23T23:39:56.262Z,100488.72
2022-08-23T23:42:25.808Z,100502.06
2022-08-23T23:44:55.301Z,100507.56
2022-08-23T23:47:24.765Z,100501.72
2022-08-23T23:49:56.970Z,100504.63
2022-08-23T23:52:26.453Z,100497.19
2022-08-23T23:54:55.895Z,100503.88
2022-08-23T23:57:25.738Z,100501.69
2022-08-23T23:59:56.873Z,100502.72
